< < Back
Terminal Aerodrome Forecast


Current Version              Previous Versions:   1  2  3  4  5  6  7  8  9  

Terminal Aerodrome Forecast

510
FTUS42 KFFC 010332 AAE
TAFATL
TAF AMD
KATL 010332Z 0104/0206 26010KT P6SM -RA FEW060 BKN090
      TEMPO 0104/0108 3SM -TSRA BKN035CB
     FM010900 31005KT P6SM VCSH SCT015
     FM011600 34007KT P6SM SCT045
     FM012300 04006KT P6SM FEW050=



Latest METAR

595
SAUS70 KWBC 011000 RRP
MTRATL
METAR KATL 010952Z 25007KT 10SM FEW007 SCT090 OVC140 14/12 A2999 RMK AO2
SLP151 T01390122


USA.gov is the U.S. government's official web portal to all federal, state and local government web resources and services.